Time;durP1;ratioP1;P1;durP2;ratioP2;P2;SDS_P1;SDS_P2;PMS_P1;PMS_P2;Temp;Humidity;BMP_temperature;BMP_pressure;BME280_temperature;BME280_humidity;BME280_pressure;Samples;Min_cycle;Max_cycle;Signal;HPM_P1;HPM_P2
2022/02/16 00:02:12;;;;;;;23.83;9.43;;;;;;;4.29;100.00;99586.13;5031738;28;20040;-77
2022/02/16 00:04:38;;;;;;;17.23;10.07;;;;;;;4.28;100.00;99581.81;5014880;28;20390;-76
2022/02/16 00:07:04;;;;;;;;;;;;;;;4.30;100.00;99579.84;5034369;28;20207;-76
2022/02/16 00:09:29;;;;;;;18.40;10.15;;;;;;;4.36;100.00;99581.91;5032371;28;20250;-76
2022/02/16 00:11:55;;;;;;;18.77;11.18;;;;;;;4.35;100.00;99564.34;5032213;28;20496;-76
2022/02/16 00:14:21;;;;;;;25.63;11.13;;;;;;;4.32;100.00;99562.84;5030806;28;20083;-76
2022/02/16 00:16:47;;;;;;;17.17;9.77;;;;;;;4.38;100.00;99561.44;5031899;28;20558;-76
2022/02/16 00:19:13;;;;;;;23.27;11.25;;;;;;;4.42;100.00;99562.78;5031470;28;20120;-76
2022/02/16 00:21:38;;;;;;;18.47;11.03;;;;;;;4.39;100.00;99552.50;5030467;28;20209;-76
2022/02/16 00:24:04;;;;;;;20.13;11.33;;;;;;;4.38;100.00;99551.69;5030625;28;20324;-76
2022/02/16 00:26:29;;;;;;;18.60;11.80;;;;;;;4.34;100.00;99550.31;5047062;28;20033;-76
2022/02/16 00:28:56;;;;;;;20.73;11.20;;;;;;;4.35;100.00;99551.16;5030273;28;20037;-76
2022/02/16 00:31:23;;;;;;;19.92;11.23;;;;;;;4.37;100.00;99549.19;5030315;28;20578;-76
2022/02/16 00:33:48;;;;;;;22.30;11.52;;;;;;;4.43;100.00;99557.34;5046830;28;20029;-76
2022/02/16 00:36:13;;;;;;;18.60;9.77;;;;;;;4.41;100.00;99553.19;5030158;28;20037;-76
2022/02/16 00:38:39;;;;;;;19.93;10.10;;;;;;;4.43;100.00;99559.16;5031679;28;20037;-76
2022/02/16 00:41:04;;;;;;;23.93;11.70;;;;;;;4.42;100.00;99544.28;5014057;28;20338;-77
2022/02/16 00:43:30;;;;;;;18.30;10.20;;;;;;;4.47;100.00;99549.09;5029298;28;20121;-76
2022/02/16 00:45:55;;;;;;;19.20;10.63;;;;;;;4.44;100.00;99535.19;5030078;28;20029;-76
2022/02/16 00:48:20;;;;;;;21.93;9.73;;;;;;;4.46;100.00;99535.06;5029861;28;20045;-76
2022/02/16 00:50:46;;;;;;;19.73;9.70;;;;;;;4.45;100.00;99544.00;5029729;28;20279;-76
2022/02/16 00:53:12;;;;;;;27.02;9.43;;;;;;;4.48;100.00;99542.84;5030287;28;20038;-76
2022/02/16 00:55:37;;;;;;;18.67;9.98;;;;;;;4.47;100.00;99543.81;5030118;28;20029;-76
2022/02/16 00:58:06;;;;;;;17.63;10.13;;;;;;;4.45;100.00;99530.78;5030027;28;20040;-76
2022/02/16 01:00:33;;;;;;;23.50;10.10;;;;;;;4.48;100.00;99532.28;5030100;28;20029;-76
2022/02/16 01:02:58;;;;;;;26.25;9.63;;;;;;;4.42;100.00;99525.78;5029976;28;20175;-76
2022/02/16 01:05:24;;;;;;;19.67;10.18;;;;;;;4.52;100.00;99533.59;5030306;28;20033;-77
2022/02/16 01:07:49;;;;;;;22.90;9.43;;;;;;;4.47;100.00;99527.97;5030403;28;20029;-76
2022/02/16 01:10:16;;;;;;;19.08;9.43;;;;;;;4.44;100.00;99534.38;5030592;28;20784;-76
2022/02/16 01:12:46;;;;;;;17.50;9.27;;;;;;;4.41;100.00;99538.16;5030376;28;20029;-77
2022/02/16 01:15:13;;;;;;;18.23;8.60;;;;;;;4.39;100.00;99526.09;5030170;28;20148;-77
2022/02/16 01:17:42;;;;;;;19.42;8.57;;;;;;;4.39;100.00;99526.91;5029619;28;20036;-76
2022/02/16 01:20:27;;;;;;;18.95;9.65;;;;;;;4.40;100.00;99530.38;5031410;28;20045;-76
2022/02/16 01:22:59;;;;;;;25.98;12.07;;;;;;;4.42;100.00;99526.63;5030184;28;20124;-77
2022/02/16 01:25:24;;;;;;;20.80;10.73;;;;;;;4.39;100.00;99520.81;5029561;28;20079;-76
2022/02/16 01:27:50;;;;;;;23.13;11.27;;;;;;;4.33;100.00;99509.03;5030325;28;20520;-78
2022/02/16 01:30:18;;;;;;;24.67;12.13;;;;;;;4.39;100.00;99521.63;5031780;28;20442;-78
2022/02/16 01:32:54;;;;;;;21.30;9.98;;;;;;;4.42;100.00;99520.47;5032380;28;20382;-78
2022/02/16 01:35:27;;;;;;;21.80;10.07;;;;;;;4.40;100.00;99519.81;5016582;28;20559;-78
2022/02/16 01:37:53;;;;;;;18.80;9.60;;;;;;;4.42;100.00;99525.78;5048713;28;20044;-78
2022/02/16 01:40:19;;;;;;;22.17;10.23;;;;;;;4.46;100.00;99519.19;5031840;28;20403;-77
2022/02/16 01:42:47;;;;;;;18.45;10.07;;;;;;;4.41;100.00;99510.91;5033237;28;20060;-78
2022/02/16 01:45:27;;;;;;;18.00;10.02;;;;;;;4.42;100.00;99505.47;5032330;28;20026;-79
2022/02/16 01:47:54;;;;;;;18.27;10.02;;;;;;;4.40;100.00;99506.59;5032369;28;20038;-78
2022/02/16 01:50:19;;;;;;;17.05;9.55;;;;;;;4.35;100.00;99493.00;5031931;28;20497;-78
2022/02/16 01:52:45;;;;;;;20.85;11.65;;;;;;;4.34;100.00;99494.00;5032897;28;20029;-78
2022/02/16 01:55:11;;;;;;;23.73;10.33;;;;;;;4.36;100.00;99489.41;5034627;28;20037;-78
2022/02/16 01:57:40;;;;;;;27.13;11.73;;;;;;;4.31;100.00;99486.38;5053482;28;20626;-79
2022/02/16 02:00:10;;;;;;;22.58;11.68;;;;;;;4.34;100.00;99488.72;5036653;28;20075;-78
2022/02/16 02:02:46;;;;;;;21.00;12.07;;;;;;;4.30;100.00;99490.00;5036942;28;20079;-78
2022/02/16 02:05:35;;;;;;;21.35;11.50;;;;;;;4.31;100.00;99486.38;5028920;28;20049;-78
2022/02/16 02:08:04;;;;;;;29.23;11.73;;;;;;;4.29;100.00;99483.91;5053527;28;20430;-78
2022/02/16 02:10:29;;;;;;;;;;;;;;;4.34;100.00;99491.38;5036720;28;20021;-78
2022/02/16 02:12:56;;;;;;;24.30;10.98;;;;;;;4.37;100.00;99491.06;5036915;28;20432;-78
2022/02/16 02:15:29;;;;;;;31.27;13.48;;;;;;;4.35;100.00;99483.25;5036679;28;20044;-78
2022/02/16 02:18:06;;;;;;;25.55;11.85;;;;;;;4.33;100.00;99481.75;5037050;28;20387;-78
2022/02/16 02:20:31;;;;;;;25.85;12.55;;;;;;;4.33;100.00;99487.03;5037118;28;20083;-78
2022/02/16 02:22:58;;;;;;;27.75;13.38;;;;;;;4.35;100.00;99472.69;5037261;28;20053;-78
2022/02/16 02:25:24;;;;;;;25.92;12.10;;;;;;;4.28;100.00;99468.19;5053479;28;20033;-78
2022/02/16 02:27:50;;;;;;;;;;;;;;;4.30;100.00;99471.50;5037811;28;20410;-78
2022/02/16 02:30:15;;;;;;;;;;;;;;;4.23;100.00;99473.94;5036711;28;19939;-78
2022/02/16 02:32:47;;;;;;;31.00;13.82;;;;;;;4.16;100.00;99465.78;5036938;28;19916;-78
2022/02/16 02:35:14;;;;;;;29.95;13.77;;;;;;;4.14;100.00;99462.47;5037465;28;20065;-78
2022/02/16 02:37:40;;;;;;;26.85;13.55;;;;;;;4.11;100.00;99460.13;5037344;28;20059;-78
2022/02/16 02:40:08;;;;;;;33.03;14.70;;;;;;;4.11;100.00;99457.47;5036495;28;20045;-78
2022/02/16 02:42:38;;;;;;;23.48;13.82;;;;;;;4.11;100.00;99460.13;5037201;28;20108;-77
2022/02/16 02:45:06;;;;;;;32.28;15.32;;;;;;;4.07;100.00;99445.56;5033807;28;20030;-78
2022/02/16 02:47:33;;;;;;;32.10;16.60;;;;;;;4.11;100.00;99457.47;5030136;28;20032;-78
2022/02/16 02:49:59;;;;;;;29.83;15.65;;;;;;;4.11;100.00;99456.66;5039915;28;20037;-78
2022/02/16 02:52:24;;;;;;;30.73;14.38;;;;;;;4.10;100.00;99455.00;5056960;28;20163;-79
2022/02/16 02:54:50;;;;;;;30.67;15.77;;;;;;;4.09;100.00;99454.16;5056931;28;20036;-76
2022/02/16 02:57:15;;;;;;;27.93;14.03;;;;;;;4.09;100.00;99459.44;5058597;28;20045;-78
2022/02/16 02:59:41;;;;;;;26.15;13.80;;;;;;;4.06;100.00;99457.13;5058989;28;20048;-78
2022/02/16 03:02:07;;;;;;;28.60;14.27;;;;;;;4.13;100.00;99446.78;5043516;28;20029;-78
2022/02/16 03:04:32;;;;;;;28.20;14.73;;;;;;;4.15;100.00;99450.94;5060171;28;20032;-78
2022/02/16 03:06:58;;;;;;;33.72;14.55;;;;;;;4.19;100.00;99454.94;5042991;28;20029;-78
2022/02/16 03:09:24;;;;;;;26.23;12.95;;;;;;;4.20;100.00;99451.28;5040363;28;20120;-78
2022/02/16 03:11:49;;;;;;;27.37;14.80;;;;;;;4.20;100.00;99447.81;5037356;28;20071;-78
2022/02/16 03:14:16;;;;;;;35.88;15.07;;;;;;;4.21;100.00;99445.03;5037238;28;20052;-77
2022/02/16 03:16:41;;;;;;;34.70;15.70;;;;;;;4.29;100.00;99446.91;5054002;28;20029;-77
2022/02/16 03:19:07;;;;;;;29.58;15.38;;;;;;;4.26;100.00;99441.09;5053622;28;20041;-78
2022/02/16 03:21:34;;;;;;;30.20;15.35;;;;;;;4.19;100.00;99435.59;5054029;28;20029;-77
2022/02/16 03:23:59;;;;;;;29.45;14.35;;;;;;;4.21;100.00;99445.03;5037451;28;20509;-77
2022/02/16 03:26:25;;;;;;;41.90;16.50;;;;;;;4.17;100.00;99438.41;5053990;28;20033;-76
2022/02/16 03:28:51;;;;;;;36.13;16.40;;;;;;;4.14;100.00;99443.13;5035764;28;20391;-77
2022/02/16 03:31:22;;;;;;;33.45;15.07;;;;;;;4.11;100.00;99443.47;5037439;28;20029;-78
2022/02/16 03:33:57;;;;;;;31.45;15.88;;;;;;;4.05;100.00;99450.19;5037781;28;20036;-77
2022/02/16 03:36:25;;;;;;;35.47;16.05;;;;;;;4.02;100.00;99450.47;5052917;28;20033;-77
2022/02/16 03:38:51;;;;;;;37.60;16.25;;;;;;;4.00;100.00;99445.38;5053900;28;20284;-78
2022/02/16 03:41:21;;;;;;;38.15;16.25;;;;;;;4.06;100.00;99451.00;5037011;28;20033;-77
2022/02/16 03:43:47;;;;;;;41.15;14.05;;;;;;;4.08;100.00;99452.50;5052505;28;20086;-77
2022/02/16 03:46:14;;;;;;;28.60;15.02;;;;;;;4.10;100.00;99449.72;5036461;28;20029;-76
2022/02/16 03:48:44;;;;;;;36.28;15.20;;;;;;;4.16;100.00;99455.22;5052228;28;20033;-76
2022/02/16 03:51:10;;;;;;;28.97;14.23;;;;;;;4.12;100.00;99453.88;5036282;28;20478;-77
2022/02/16 03:53:35;;;;;;;30.47;14.37;;;;;;;4.14;100.00;99445.78;5052618;28;20029;-77
2022/02/16 03:56:01;;;;;;;29.63;13.00;;;;;;;4.19;100.00;99448.78;5052945;28;20112;-78
2022/02/16 03:58:27;;;;;;;32.20;14.75;;;;;;;4.12;100.00;99440.66;5051961;28;20278;-77
2022/02/16 04:00:52;;;;;;;26.03;12.67;;;;;;;4.12;100.00;99435.38;5035295;28;20115;-77
2022/02/16 04:03:18;;;;;;;26.63;13.40;;;;;;;4.20;100.00;99432.78;5034076;28;20309;-77
2022/02/16 04:05:44;;;;;;;30.58;12.80;;;;;;;4.17;100.00;99429.66;5035034;28;20029;-77
2022/02/16 04:08:10;;;;;;;24.08;12.65;;;;;;;4.17;100.00;99419.09;5051431;28;20140;-76
2022/02/16 04:10:36;;;;;;;30.98;12.48;;;;;;;4.19;100.00;99417.09;5050237;28;20307;-76
2022/02/16 04:13:03;;;;;;;28.58;12.52;;;;;;;4.18;100.00;99413.63;5034581;28;20116;-77
2022/02/16 04:15:28;;;;;;;25.67;11.15;;;;;;;4.20;100.00;99411.66;5050696;28;20112;-77
2022/02/16 04:18:00;;;;;;;30.15;12.82;;;;;;;4.29;100.00;99403.81;5052085;28;20545;-77
2022/02/16 04:20:26;;;;;;;29.63;12.60;;;;;;;4.31;100.00;99405.31;5051753;28;20064;-77
2022/02/16 04:22:51;;;;;;;27.52;11.25;;;;;;;4.30;100.00;99397.53;5033889;28;20064;-78
2022/02/16 04:25:19;;;;;;;30.13;12.80;;;;;;;4.32;100.00;99406.13;5048840;28;20090;-77
2022/02/16 04:27:46;;;;;;;24.05;11.45;;;;;;;4.30;100.00;99389.59;5049152;28;20532;-76
2022/02/16 04:30:12;;;;;;;25.10;10.60;;;;;;;4.32;100.00;99396.38;5050282;28;20029;-78
2022/02/16 04:32:38;;;;;;;31.02;10.82;;;;;;;4.33;100.00;99395.41;5051998;28;20017;-78
2022/02/16 04:35:06;;;;;;;23.83;11.27;;;;;;;4.39;100.00;99396.59;5051734;28;20032;-77
2022/02/16 04:37:31;;;;;;;26.20;11.07;;;;;;;4.43;100.00;99384.75;5050712;28;20082;-78
2022/02/16 04:39:57;;;;;;;20.80;9.90;;;;;;;4.45;100.00;99390.69;5050464;28;20064;-77
2022/02/16 04:42:24;;;;;;;22.42;10.45;;;;;;;4.41;100.00;99376.13;5051493;28;20082;-77
2022/02/16 04:44:49;;;;;;;28.23;12.18;;;;;;;4.47;100.00;99369.38;5035091;28;20387;-76
2022/02/16 04:47:16;;;;;;;26.13;11.18;;;;;;;4.47;100.00;99364.91;5049997;28;20036;-77
2022/02/16 04:49:42;;;;;;;24.63;10.90;;;;;;;4.50;100.00;99347.94;5049085;28;20032;-76
2022/02/16 04:52:08;;;;;;;31.10;11.10;;;;;;;4.47;100.00;99364.91;5049993;28;20025;-77
2022/02/16 04:54:35;;;;;;;21.40;10.43;;;;;;;4.54;100.00;99358.03;5051178;28;20091;-77
2022/02/16 04:57:01;;;;;;;26.17;10.52;;;;;;;4.51;100.00;99355.69;5034838;28;20025;-77
2022/02/16 04:59:35;;;;;;;31.83;11.88;;;;;;;4.54;100.00;99358.03;5034389;28;20033;-78
2022/02/16 05:02:00;;;;;;;23.63;10.93;;;;;;;4.56;100.00;99349.94;5033311;28;20067;-78
2022/02/16 05:04:26;;;;;;;29.50;11.97;;;;;;;4.58;100.00;99345.31;5033406;28;20033;-78
2022/02/16 05:06:52;;;;;;;;;;;;;;;4.62;100.00;99336.09;5051397;28;20123;-77
2022/02/16 05:09:17;;;;;;;26.38;10.10;;;;;;;4.56;100.00;99321.69;5051631;28;20384;-77
2022/02/16 05:11:43;;;;;;;20.63;11.20;;;;;;;4.54;100.00;99296.41;5034913;28;20448;-77
2022/02/16 05:14:09;;;;;;;26.75;11.68;;;;;;;4.56;100.00;99294.44;5052018;28;20025;-76
2022/02/16 05:16:37;;;;;;;23.38;10.40;;;;;;;4.53;100.00;99285.00;5035428;28;20036;-77
2022/02/16 05:19:03;;;;;;;33.03;11.32;;;;;;;4.58;100.00;99271.31;5034937;28;20551;-77
2022/02/16 05:21:35;;;;;;;29.38;11.27;;;;;;;4.58;100.00;99280.06;5034138;28;20045;-76
2022/02/16 05:24:03;;;;;;;25.55;11.30;;;;;;;4.57;100.00;99265.22;5049442;28;20060;-76
2022/02/16 05:26:29;;;;;;;26.23;11.65;;;;;;;4.55;100.00;99261.88;5049283;28;20329;-78
2022/02/16 05:28:55;;;;;;;38.75;13.27;;;;;;;4.53;100.00;99253.28;5032139;28;20403;-78
2022/02/16 05:31:20;;;;;;;28.13;12.83;;;;;;;4.58;100.00;99264.19;5032697;28;20025;-77
2022/02/16 05:33:45;;;;;;;32.90;14.57;;;;;;;4.59;100.00;99278.28;5049309;28;20520;-78
2022/02/16 05:36:16;;;;;;;36.88;13.43;;;;;;;4.60;100.00;99270.16;5033437;28;20271;-76
2022/02/16 05:38:42;;;;;;;29.95;13.80;;;;;;;4.61;100.00;99255.13;5032160;28;20029;-77
2022/02/16 05:41:08;;;;;;;31.52;13.15;;;;;;;4.64;100.00;99255.66;5032727;28;20021;-76
2022/02/16 05:43:35;;;;;;;26.35;13.77;;;;;;;4.63;100.00;99227.53;5032861;28;20446;-76
2022/02/16 05:46:02;;;;;;;32.85;14.07;;;;;;;4.59;100.00;99214.84;5049382;28;20029;-76
2022/02/16 05:48:29;;;;;;;29.65;14.88;;;;;;;4.71;100.00;99233.84;5032068;28;20443;-76
2022/02/16 05:50:55;;;;;;;33.30;15.20;;;;;;;4.75;100.00;99229.88;5049104;28;20029;-76
2022/02/16 05:53:21;;;;;;;37.05;15.77;;;;;;;4.72;100.00;99217.00;5048977;28;20032;-76
2022/02/16 05:55:46;;;;;;;36.83;15.53;;;;;;;4.79;100.00;99224.09;5032411;28;20029;-77
2022/02/16 05:58:12;;;;;;;37.40;16.73;;;;;;;4.84;100.00;99213.03;5033349;28;20033;-77
2022/02/16 06:00:38;;;;;;;38.47;17.33;;;;;;;4.80;100.00;99207.28;5049607;28;20282;-76
2022/02/16 06:03:04;;;;;;;39.47;17.90;;;;;;;4.79;100.00;99200.31;5048732;28;20056;-77
2022/02/16 06:05:31;;;;;;;37.97;18.77;;;;;;;4.75;100.00;99204.28;5049419;28;20489;-77
2022/02/16 06:07:57;;;;;;;44.78;19.13;;;;;;;4.82;100.00;99188.56;5033024;28;20043;-77
2022/02/16 06:10:22;;;;;;;42.08;19.67;;;;;;;4.86;100.00;99181.97;5033083;28;20017;-77
2022/02/16 06:12:48;;;;;;;47.13;21.65;;;;;;;4.90;100.00;99182.50;5033403;28;20033;-77
2022/02/16 06:15:13;;;;;;;44.60;19.40;;;;;;;4.86;100.00;99176.69;5048914;28;20116;-77
2022/02/16 06:17:41;;;;;;;46.95;21.52;;;;;;;4.84;100.00;99173.38;5049609;28;20033;-77
2022/02/16 06:20:10;;;;;;;51.47;21.25;;;;;;;4.93;100.00;99159.16;5048878;28;20036;-77
2022/02/16 06:22:36;;;;;;;44.97;20.65;;;;;;;4.92;100.00;99162.00;5048955;28;20389;-76
2022/02/16 06:25:05;;;;;;;44.35;20.90;;;;;;;5.01;100.00;99156.53;5049437;28;20071;-78
2022/02/16 06:27:31;;;;;;;46.35;20.80;;;;;;;4.89;100.00;99147.25;5049637;28;20098;-78
2022/02/16 06:29:58;;;;;;;37.60;17.60;;;;;;;4.92;100.00;99144.31;5048707;28;20017;-77
2022/02/16 06:32:44;;;;;;;34.10;16.67;;;;;;;4.93;100.00;99134.56;5040322;28;20135;-77
2022/02/16 06:35:12;;;;;;;37.78;17.75;;;;;;;4.93;100.00;99124.78;5051817;28;20029;-76
2022/02/16 06:37:37;;;;;;;36.05;16.88;;;;;;;4.90;100.00;99106.63;5049273;28;20367;-76
2022/02/16 06:40:04;;;;;;;38.08;19.63;;;;;;;4.94;100.00;99107.94;5048804;28;20029;-76
2022/02/16 06:42:30;;;;;;;37.30;15.25;;;;;;;4.88;100.00;99098.03;5051758;28;20021;-76
2022/02/16 06:44:56;;;;;;;;;;;;;;;4.92;100.00;99082.66;5035659;28;20065;-76
2022/02/16 06:47:30;;;;;;;35.65;14.95;;;;;;;5.02;100.00;99083.31;5052401;28;19909;-76
2022/02/16 06:49:55;;;;;;;39.95;17.77;;;;;;;4.85;100.00;99045.47;5051859;28;20404;-76
2022/02/16 06:52:21;;;;;;;35.77;14.87;;;;;;;4.93;100.00;99050.75;5036273;28;20062;-77
2022/02/16 06:54:46;;;;;;;39.20;16.73;;;;;;;4.89;100.00;99033.56;5052257;28;20505;-78
2022/02/16 06:57:12;;;;;;;30.97;14.77;;;;;;;4.79;100.00;99030.28;5036063;28;20033;-76
2022/02/16 06:59:48;;;;;;;37.47;15.35;;;;;;;4.76;100.00;99030.63;5051675;28;20037;-76
2022/02/16 07:02:14;;;;;;;38.03;17.80;;;;;;;4.69;100.00;99019.06;5051884;28;20405;-76
2022/02/16 07:04:40;;;;;;;42.33;19.60;;;;;;;4.69;100.00;99019.88;5037806;28;20029;-76
2022/02/16 07:07:05;;;;;;;39.28;16.77;;;;;;;4.71;100.00;99027.66;5055265;28;20079;-76
2022/02/16 07:09:31;;;;;;;40.70;16.58;;;;;;;4.71;100.00;99032.94;5037673;28;20488;-76
2022/02/16 07:11:57;;;;;;;45.50;18.50;;;;;;;4.77;100.00;99038.34;5052752;28;20116;-76
2022/02/16 07:14:23;;;;;;;46.70;20.10;;;;;;;4.79;100.00;99040.84;5034834;28;20428;-76
2022/02/16 07:16:49;;;;;;;42.03;18.75;;;;;;;4.76;100.00;99030.63;5051775;28;20355;-75
2022/02/16 07:19:16;;;;;;;39.75;18.40;;;;;;;4.84;100.00;99038.53;5051617;28;20025;-76
2022/02/16 07:21:45;;;;;;;50.60;20.80;;;;;;;4.86;100.00;99021.50;5035415;28;20095;-75
2022/02/16 07:24:11;;;;;;;39.85;17.65;;;;;;;4.97;100.00;99022.97;5050619;28;20028;-75
2022/02/16 07:26:38;;;;;;;38.90;16.60;;;;;;;4.89;100.00;99008.94;5051545;28;20048;-75
2022/02/16 07:29:04;;;;;;;38.95;17.75;;;;;;;4.90;100.00;99016.72;5034822;28;20024;-75
2022/02/16 07:31:30;;;;;;;37.00;17.20;;;;;;;4.96;100.00;99023.94;5051663;28;20091;-75
2022/02/16 07:33:56;;;;;;;44.03;17.55;;;;;;;4.95;100.00;99009.09;5051347;28;20535;-76
2022/02/16 07:36:22;;;;;;;32.28;15.10;;;;;;;4.93;100.00;99003.13;5036457;28;20043;-76
2022/02/16 07:38:48;;;;;;;30.38;14.48;;;;;;;4.93;100.00;98991.75;5035029;28;20029;-76
2022/02/16 07:41:13;;;;;;;35.42;15.23;;;;;;;5.05;100.00;98999.13;5034834;28;20037;-75
2022/02/16 07:43:50;;;;;;;23.55;11.35;;;;;;;5.02;100.00;98988.09;5053710;28;20051;-76
2022/02/16 07:46:36;;;;;;;26.17;11.70;;;;;;;5.05;100.00;98977.16;5051726;28;20064;-76
2022/02/16 07:49:02;;;;;;;;;;;;;;;5.00;100.00;98980.31;5036685;28;20032;-76
2022/02/16 07:51:47;;;;;;;24.45;10.85;;;;;;;5.00;100.00;98969.72;5052883;28;20003;-78
2022/02/16 07:54:20;;;;;;;21.20;10.80;;;;;;;5.00;100.00;98968.91;5036777;28;20043;-77
2022/02/16 07:56:51;;;;;;;21.33;9.73;;;;;;;5.07;100.00;98964.59;5051665;28;20557;-76
2022/02/16 07:59:17;;;;;;;19.25;9.27;;;;;;;5.10;100.00;98958.13;5050870;28;20112;-76
2022/02/16 08:01:42;;;;;;;17.77;8.80;;;;;;;5.17;100.00;98951.97;5050908;28;20035;-76
2022/02/16 08:04:17;;;;;;;18.30;9.10;;;;;;;5.15;100.00;98942.56;5067658;28;20402;-76
2022/02/16 08:06:48;;;;;;;17.50;9.20;;;;;;;5.17;100.00;98940.56;5051202;28;20295;-76
2022/02/16 08:09:14;;;;;;;15.98;7.93;;;;;;;5.12;100.00;98916.47;5050708;28;20029;-76
2022/02/16 08:11:41;;;;;;;17.88;8.63;;;;;;;5.20;100.00;98913.78;5051305;28;20027;-77
2022/02/16 08:14:08;;;;;;;14.52;6.93;;;;;;;5.19;100.00;98909.47;5050820;28;20119;-77
2022/02/16 08:17:06;;;;;;;15.48;7.15;;;;;;;5.27;100.00;98893.59;5043047;28;20132;-77
2022/02/16 08:19:32;;;;;;;13.25;6.65;;;;;;;5.22;100.00;98882.66;5051683;28;20144;-76
2022/02/16 08:21:58;;;;;;;;;;;;;;;5.23;100.00;98873.75;5052858;28;20021;-77
2022/02/16 08:24:26;;;;;;;12.88;6.82;;;;;;;5.24;100.00;98864.81;5051110;28;19916;-77
2022/02/16 08:26:55;;;;;;;11.02;6.15;;;;;;;5.25;100.00;98850.59;5050827;28;20509;-76
2022/02/16 08:29:24;;;;;;;12.10;7.07;;;;;;;5.25;100.00;98850.59;5050518;28;20401;-76
2022/02/16 08:31:50;;;;;;;10.82;6.10;;;;;;;5.15;100.00;98836.75;5052344;28;20028;-75
2022/02/16 08:34:40;;;;;;;11.18;5.18;;;;;;;5.19;100.00;98832.75;5050693;28;20067;-77
2022/02/16 08:37:09;;;;;;;11.45;5.63;;;;;;;5.22;100.00;98835.03;5051223;28;20402;-77
2022/02/16 08:39:35;;;;;;;8.70;4.47;;;;;;;5.20;100.00;98821.19;5051492;28;20039;-77
2022/02/16 08:42:00;;;;;;;9.83;4.67;;;;;;;5.21;100.00;98812.25;5051780;28;20032;-76
2022/02/16 08:44:26;;;;;;;7.83;4.30;;;;;;;5.20;100.00;98800.03;5051787;28;20783;-78
2022/02/16 08:46:51;;;;;;;9.40;4.50;;;;;;;5.19;100.00;98785.97;5052050;28;20036;-76
2022/02/16 08:49:17;;;;;;;7.70;4.43;;;;;;;5.25;100.00;98789.75;5051086;28;20451;-76
2022/02/16 08:51:44;;;;;;;6.57;3.97;;;;;;;5.20;100.00;98763.00;5051459;28;20040;-75
2022/02/16 08:54:09;;;;;;;7.18;4.72;;;;;;;5.23;100.00;98762.63;5051451;28;20033;-76
2022/02/16 08:56:35;;;;;;;7.63;4.40;;;;;;;5.31;100.00;98764.38;5047099;28;20040;-76
2022/02/16 08:59:01;;;;;;;7.30;3.95;;;;;;;5.32;100.00;98743.03;5047084;28;20033;-77
2022/02/16 09:01:31;;;;;;;7.97;4.97;;;;;;;5.30;100.00;98742.41;5048283;28;20043;-76
2022/02/16 09:04:02;;;;;;;6.68;3.78;;;;;;;5.32;100.00;98739.59;5047667;28;20141;-77
2022/02/16 09:06:29;;;;;;;9.20;4.80;;;;;;;5.35;100.00;98734.75;5050107;28;20064;-77
2022/02/16 09:08:54;;;;;;;7.53;4.32;;;;;;;5.43;100.00;98716.16;5050446;28;20307;-78
2022/02/16 09:11:20;;;;;;;7.30;4.22;;;;;;;5.44;100.00;98709.03;5053803;28;20031;-78
2022/02/16 09:13:45;;;;;;;8.20;5.20;;;;;;;5.46;100.00;98702.56;5054470;28;20422;-79
2022/02/16 09:16:11;;;;;;;8.52;5.03;;;;;;;5.44;100.00;98693.16;5054382;28;20389;-79
2022/02/16 09:18:37;;;;;;;11.52;5.13;;;;;;;5.52;100.00;98671.09;5054842;28;20593;-77
2022/02/16 09:21:05;;;;;;;8.32;5.18;;;;;;;5.60;100.00;98668.38;5054390;28;20174;-79
2022/02/16 09:23:35;;;;;;;9.35;5.90;;;;;;;5.66;100.00;98667.63;5054610;28;20071;-78
2022/02/16 09:26:04;;;;;;;10.18;6.30;;;;;;;5.64;100.00;98643.16;5054049;28;20059;-78
2022/02/16 09:28:30;;;;;;;9.48;5.45;;;;;;;5.72;100.00;98643.91;5053437;28;20561;-78
2022/02/16 09:31:00;;;;;;;8.75;5.70;;;;;;;5.76;100.00;98633.78;5054278;28;20064;-78
2022/02/16 09:33:27;;;;;;;11.38;6.07;;;;;;;5.73;100.00;98626.19;5054715;28;20029;-76
2022/02/16 09:35:54;;;;;;;8.95;5.80;;;;;;;5.72;100.00;98604.19;5069885;28;20044;-78
2022/02/16 09:38:19;;;;;;;8.27;5.32;;;;;;;5.83;100.00;98602.91;5054224;28;20029;-78
2022/02/16 09:40:46;;;;;;;10.73;6.90;;;;;;;5.78;100.00;98584.06;5053691;28;20518;-78
2022/02/16 09:43:17;;;;;;;10.32;6.50;;;;;;;5.72;100.00;98572.41;5055270;28;20321;-78
2022/02/16 09:45:43;;;;;;;11.30;6.25;;;;;;;5.72;100.00;98561.00;5053233;28;20680;-79
2022/02/16 09:48:09;;;;;;;11.45;6.07;;;;;;;5.74;100.00;98553.69;5054738;28;20021;-79
2022/02/16 09:50:34;;;;;;;10.80;5.60;;;;;;;5.71;100.00;98538.16;5053397;28;20124;-79
2022/02/16 09:53:00;;;;;;;8.95;5.97;;;;;;;5.83;100.00;98531.41;5053383;28;20056;-78
2022/02/16 09:55:25;;;;;;;10.07;6.30;;;;;;;5.82;100.00;98521.81;5053521;28;20545;-78
2022/02/16 09:57:51;;;;;;;7.70;4.55;;;;;;;5.74;100.00;98516.63;5053435;28;20545;-80
2022/02/16 10:00:17;;;;;;;8.27;5.07;;;;;;;5.90;100.00;98518.25;5053030;28;20474;-78
2022/02/16 10:02:44;;;;;;;;;;;;;;;5.97;100.00;98515.66;5054961;28;20033;-77
2022/02/16 10:05:10;;;;;;;6.13;3.78;;;;;;;5.92;100.00;98490.56;5054883;28;19913;-79
2022/02/16 10:07:41;;;;;;;6.50;3.58;;;;;;;5.99;100.00;98500.41;5053327;28;20092;-78
2022/02/16 10:10:25;;;;;;;3.92;2.47;;;;;;;5.93;100.00;98475.47;5054528;28;20055;-78
2022/02/16 10:12:53;;;;;;;6.30;2.90;;;;;;;5.91;100.00;98485.44;5052874;28;20086;-79
2022/02/16 10:15:43;;;;;;;3.28;2.50;;;;;;;5.95;100.00;98467.38;5055248;28;20547;-79
2022/02/16 10:18:14;;;;;;;4.88;2.80;;;;;;;5.96;100.00;98461.06;5059000;28;20041;-79
2022/02/16 10:20:39;;;;;;;3.83;2.50;;;;;;;6.01;100.00;98467.44;5057342;28;20040;-78
2022/02/16 10:23:05;;;;;;;3.13;2.50;;;;;;;6.02;100.00;98465.63;5057794;28;20025;-78
2022/02/16 10:25:33;;;;;;;3.88;2.38;;;;;;;6.09;100.00;98445.31;5074580;28;20167;-77
2022/02/16 10:28:08;;;;;;;3.70;2.40;;;;;;;6.13;100.00;98435.97;5058195;28;20029;-79
2022/02/16 10:30:35;;;;;;;2.67;1.92;;;;;;;6.13;100.00;98430.66;5058544;28;20037;-78
2022/02/16 10:33:25;;;;;;;2.53;2.10;;;;;;;6.17;100.00;98425.81;5058642;28;20024;-78
2022/02/16 10:36:05;;;;;;;2.22;1.77;;;;;;;6.22;100.00;98418.09;5058389;28;20107;-79
2022/02/16 10:38:32;;;;;;;1.98;1.45;;;;;;;6.26;100.00;98391.03;5056910;28;20095;-78
2022/02/16 10:41:08;;;;;;;1.88;1.55;;;;;;;6.34;100.00;98390.91;5057544;28;20028;-78
2022/02/16 10:43:39;;;;;;;1.52;1.30;;;;;;;6.37;100.00;98380.91;5058592;28;20406;-79
2022/02/16 10:46:17;;;;;;;4.35;1.83;;;;;;;6.41;100.00;98384.81;5057934;28;20491;-78
2022/02/16 10:48:43;;;;;;;1.30;1.20;;;;;;;6.49;100.00;98393.44;5059596;28;20040;-77
2022/02/16 10:51:18;;;;;;;1.75;1.52;;;;;;;6.52;100.00;98384.28;5057613;28;20033;-78
2022/02/16 10:53:44;;;;;;;1.98;1.60;;;;;;;6.54;100.00;98369.81;5057166;28;20033;-78
2022/02/16 10:56:10;;;;;;;4.13;2.22;;;;;;;6.61;100.00;98364.56;5057193;28;20029;-78
2022/02/16 10:58:36;;;;;;;1.98;1.67;;;;;;;6.64;100.00;98348.25;5056796;28;20068;-78
2022/02/16 11:01:01;;;;;;;2.15;1.95;;;;;;;6.61;100.00;98340.69;5057043;28;20033;-78
2022/02/16 11:03:32;;;;;;;2.65;2.08;;;;;;;6.68;100.00;98348.69;5057367;28;20028;-78
2022/02/16 11:06:17;;;;;;;3.03;2.45;;;;;;;6.69;100.00;98323.81;5059079;28;20055;-77
2022/02/16 11:08:44;;;;;;;4.18;2.40;;;;;;;6.72;100.00;98329.53;5057389;28;20128;-78
2022/02/16 11:11:11;;;;;;;2.95;2.28;;;;;;;6.74;100.00;98321.38;5058011;28;20082;-78
2022/02/16 11:13:37;;;;;;;2.58;2.08;;;;;;;6.78;100.00;98317.31;5057069;28;20109;-77
2022/02/16 11:16:03;;;;;;;2.45;2.20;;;;;;;6.83;100.00;98309.59;5058209;28;20064;-78
2022/02/16 11:18:42;;;;;;;1.50;1.40;;;;;;;6.84;100.00;98294.50;5058879;28;20032;-79
2022/02/16 11:21:12;;;;;;;1.98;1.77;;;;;;;6.88;100.00;98296.56;5056191;28;20078;-79
2022/02/16 11:23:44;;;;;;;2.58;1.70;;;;;;;6.98;100.00;98315.56;5056412;28;20041;-79
2022/02/16 11:26:28;;;;;;;2.75;1.75;;;;;;;7.09;100.00;98277.03;5055785;28;20068;-78
2022/02/16 11:28:55;;;;;;;2.10;1.60;;;;;;;7.16;100.00;98271.72;5055259;28;20107;-77